Photometre #358[Standard_N] Brussels AOT

File : 20220828_358.hum

28/08/2022,05:47:33,TEMP=14.8,BA=5.68,STAT.A=Abs.,ExtBa=13.06
28/08/2022,05:51:36,TEMP=15.0,BA=5.68,STAT.A=Abs.,ExtBa=13.02
28/08/2022,05:56:19,TEMP=15.1,BA=5.68,STAT.A=Abs.,ExtBa=13.00
28/08/2022,06:01:54,TEMP=15.1,BA=5.68,STAT.A=Abs.,ExtBa=12.99
28/08/2022,06:08:37,TEMP=15.1,BA=5.68,STAT.A=Abs.,ExtBa=12.99
28/08/2022,06:16:52,TEMP=15.2,BA=5.52,STAT.A=Abs.,ExtBa=13.00
28/08/2022,06:27:13,TEMP=15.7,BA=5.68,STAT.B=Abs.,ExtBa=12.99
28/08/2022,06:34:09,TEMP=16.5,BA=5.44,STAT.A=Abs.,ExtBa=12.59
28/08/2022,06:37:40,TEMP=16.5,BA=5.44,STAT.A=Abs.,ExtBa=12.70
28/08/2022,06:43:52,TEMP=16.6,BA=5.68,STAT.A=Abs.,ExtBa=12.79
28/08/2022,06:50:54,TEMP=16.8,BA=5.68,STAT.A=Abs.,ExtBa=12.79
28/08/2022,06:58:56,TEMP=16.4,BA=5.68,STAT.C=Abs.,ExtBa=12.85
28/08/2022,07:09:41,TEMP=16.3,BA=5.52,STAT.A=Abs.,ExtBa=12.58
28/08/2022,07:19:10,TEMP=16.0,BA=5.44,STAT.A=Abs.,ExtBa=12.84
28/08/2022,07:32:13,TEMP=16.7,BA=5.68,STAT.A=Abs.,ExtBa=12.94
28/08/2022,07:48:09,TEMP=18.5,BA=5.68,STAT.A=Abs.,ExtBa=13.00
28/08/2022,08:08:11,TEMP=19.1,BA=5.68,STAT.B=Abs.,ExtBa=13.07
28/08/2022,08:14:50,TEMP=19.6,BA=5.52,STAT.D=Abs.,ExtBa=12.58
28/08/2022,08:29:37,TEMP=20.1,BA=5.68,STAT.D=Abs.,ExtBa=12.89
28/08/2022,08:44:39,TEMP=20.6,BA=5.68,STAT.F,ExtBa=12.97
28/08/2022,08:59:37,TEMP=20.7,BA=5.44,STAT.D=Abs.,ExtBa=12.74
28/08/2022,09:14:37,TEMP=21.7,BA=5.68,STAT.D=Abs.,ExtBa=12.91
28/08/2022,09:29:38,TEMP=22.1,BA=5.68,STAT.D=Abs.,ExtBa=12.97
28/08/2022,09:44:39,TEMP=22.0,BA=5.68,STAT.F,ExtBa=13.02
28/08/2022,09:59:38,TEMP=22.1,BA=5.44,STAT.D=Abs.,ExtBa=12.75
28/08/2022,10:14:38,TEMP=22.6,BA=5.68,STAT.D=Abs.,ExtBa=12.90
28/08/2022,10:29:38,TEMP=23.0,BA=5.68,STAT.D=Abs.,ExtBa=12.96
28/08/2022,10:44:39,TEMP=23.3,BA=5.68,STAT.F,ExtBa=13.01
28/08/2022,10:59:38,TEMP=23.8,BA=5.44,STAT.D=Abs.,ExtBa=12.75
28/08/2022,11:14:38,TEMP=23.5,BA=5.68,STAT.D=Abs.,ExtBa=12.91
28/08/2022,11:29:38,TEMP=24.1,BA=5.68,STAT.D=Abs.,ExtBa=12.98
28/08/2022,11:44:40,TEMP=24.6,BA=5.68,STAT.F,ExtBa=13.02
28/08/2022,11:59:38,TEMP=24.6,BA=5.36,STAT.D=Abs.,ExtBa=12.77
28/08/2022,12:14:38,TEMP=25.0,BA=5.68,STAT.D=Abs.,ExtBa=12.93
28/08/2022,12:29:38,TEMP=25.0,BA=5.68,STAT.D=Abs.,ExtBa=12.98
28/08/2022,12:44:40,TEMP=25.1,BA=5.68,STAT.F,ExtBa=13.02
28/08/2022,12:59:38,TEMP=25.2,BA=5.40,STAT.D=Abs.,ExtBa=12.78
28/08/2022,13:14:38,TEMP=25.9,BA=5.68,STAT.D=Abs.,ExtBa=12.91
28/08/2022,13:29:38,TEMP=25.5,BA=5.68,STAT.D=Abs.,ExtBa=12.98
28/08/2022,13:44:39,TEMP=26.2,BA=5.68,STAT.F,ExtBa=13.00
28/08/2022,13:59:38,TEMP=26.0,BA=5.44,STAT.D=Abs.,ExtBa=12.78
28/08/2022,14:14:38,TEMP=26.1,BA=5.68,STAT.D=Abs.,ExtBa=12.92
28/08/2022,14:29:37,TEMP=26.3,BA=5.68,STAT.D=Abs.,ExtBa=12.96
28/08/2022,14:44:39,TEMP=27.0,BA=5.68,STAT.F,ExtBa=13.00
28/08/2022,14:59:37,TEMP=26.3,BA=5.40,STAT.D=Abs.,ExtBa=12.79
28/08/2022,15:14:37,TEMP=26.0,BA=5.68,STAT.D=Abs.,ExtBa=12.91
28/08/2022,15:21:07,TEMP=26.0,BA=5.68,STAT.B=Abs.,ExtBa=12.90
28/08/2022,15:41:09,TEMP=25.1,BA=5.68,STAT.A=Abs.,ExtBa=12.90
28/08/2022,15:57:04,TEMP=23.8,BA=5.68,STAT.A=Abs.,ExtBa=12.96
28/08/2022,16:10:06,TEMP=23.8,BA=5.52,STAT.A=Abs.,ExtBa=12.97
28/08/2022,16:21:01,TEMP=24.3,BA=5.68,STAT.A=Abs.,ExtBa=12.98
28/08/2022,16:30:20,TEMP=24.5,BA=5.68,STAT.C=Abs.,ExtBa=12.98
28/08/2022,16:41:07,TEMP=24.6,BA=5.28,STAT.A=Abs.,ExtBa=12.66
28/08/2022,16:45:24,TEMP=24.4,BA=5.28,STAT.A=Abs.,ExtBa=12.75
28/08/2022,16:53:38,TEMP=23.9,BA=5.48,STAT.A=Abs.,ExtBa=12.82
28/08/2022,16:57:07,TEMP=23.7,BA=5.48,STAT.A=Abs.,ExtBa=12.78
28/08/2022,17:02:03,TEMP=23.1,BA=5.68,STAT.B=Abs.,ExtBa=12.80
28/08/2022,17:12:24,TEMP=22.6,BA=5.68,STAT.A=Abs.,ExtBa=12.74
28/08/2022,17:20:39,TEMP=22.0,BA=5.68,STAT.A=Abs.,ExtBa=12.81
28/08/2022,17:27:22,TEMP=21.8,BA=5.68,STAT.A=Abs.,ExtBa=12.81
28/08/2022,17:32:57,TEMP=21.5,BA=5.68,STAT.A=Abs.,ExtBa=12.80
28/08/2022,17:37:40,TEMP=21.3,BA=5.68,STAT.A=Abs.,ExtBa=12.78
28/08/2022,17:41:43,TEMP=21.3,BA=5.68,STAT.A=Abs.,ExtBa=12.75